KMBS/MBS METAR and TAF weather

Enter ICAO airport designator
Station Type Date Time Source
KMBS METAR 2021/05/13 00:53 UTC NOAA

KMBS 130053Z 29003KT 10SM CLR 15/M04 A3035 RMK AO2 SLP279 T01501044


Station Type Date Time Source
KMBS Decoded METAR 2021/05/13 00:53 UTC NOAA

MBS INTERNATIONAL AIRPORT, MI, United States (KMBS) 43-32N 084-05W 202M
May 12, 2021 - 08:53 PM EDT / 2021.05.13 0053 UTC
Wind: from the WNW (290 degrees) at 3 MPH (3 KT):0
Visibility: 10 mile(s):0
Sky conditions: clear
Temperature: 59.0 F (15.0 C)
Dew Point: 24.1 F (-4.4 C)
Relative Humidity: 25%
Pressure (altimeter): 30.35 in. Hg (1027 hPa)
ob: KMBS 130053Z 29003KT 10SM CLR 15/M04 A3035 RMK AO2 SLP279 T01501044
cycle: 1

Station Type Date Time Source
KMBS TAF 2021/05/12 18:40 UTC NOAA

TAF KMBS 121738Z 1218/1318 34007KT P6SM SCT070
FM130100 32003KT P6SM SKC
FM131400 29006KT P6SM SKC

Example: see airport list